11:30
Airports
History
Links
Donate
Help keep this website running!
PayPal
Bitcoin
This page is community maintained. The information is intended for PC simulator navigation or reference.
Always use approved charts for navigation.
VOAR
ARKONAM
ARKONAM (VOAR)
Arakkonam, Tamil Nadu, India (631004)
(U)
Lat/Lng:13° 4' 16.38" N / 79° 41' 28.29" E
13.071216 / 79.691193
Elevation:265'ft / 81mMSL
ID / ICAO:VOAR
Runways:1
Longest:06-24
Asphalt 4,104m / 13,464ft
Nearby Weather11:00 GMT 2017-12-11
Nearby weather at VOMM, CHENNAI INTL located 32.6 nautical miles from VOAR
Altimeter: 29.85
Visibility: 1.9 statute miles
Wind: 7 knots (from 080°)
Temp: 30°c / 86°f
Humidity: 66.2%

METAR: VOMM 111100Z 08007KT 3000 HZ FEW020 30/23 Q1011 NOSIG

(Powered by phpweather)
Nearby VORs <50NM
Nearby NDBs
Runway 06 / 24
Dimensions:4103.8 x 47.2m 13464' x 155'ft
Surface:Asphalt
Edge Lights:Medium intensity
Runway 06 [A]Runway 24 [B]
Heading:058°TH 238°TH
Lat:
Lng:
13° 3' 41.91"N
79° 40' 29.99"E
13° 4' 50.84"N
79° 42' 26.6"E
User Notes and Comments
13° 4' 16.38" N / 79° 41' 28.29" E
Distance To
Airport ID:
Nearby Airports
(C) TAMBARAM 31.3 NM
VOTX ESE 111°
(C) CHENNAI INTL 32.6 NM
VOMM ( WX ) E 99°
(C) TIRUPATI 40.0 NM
VOTP NNW 345°
(U) PONDICHERRY 76.6 NM
VOPC S 173°
(C) CUDDAPAH 117.0 NM
VOCP NNW 328°
(R) HOSUR 132.6 NM
VO95 WSW 257°
(C) Bangalore 136.3 NM
VOBG W 266°
VFR Chart
Flight Planning at SkyVector.com